This is the latest recevied weather packets stored in our database for station/object KQ5S-13. If no packets are shown the sender has not sent any weather packets the latest 10 day(s).
| Time | Temp. | Humidity | Pressure | Rain* | Wind** | Luminosity | Snow |
|---|---|---|---|---|---|---|---|
| 1777529416 | 16.67° C | 91% | 1012.4 hPa | 8.13 mm | - | 0 W/m² | - |
| 1777522216 | 19.44° C | 84% | 1011.9 hPa | 0 mm | - | 0 W/m² | - |
| 1777519817 | 20° C | 83% | 1012.7 hPa | 0 mm | - | 0 W/m² | - |
| 1777516216 | 20.56° C | 84% | 1012.4 hPa | 0 mm | - | 0 W/m² | - |
| 1777515636 | 20.56° C | 83% | 1011.9 hPa | 0 mm | - | 0 W/m² | - |
| 1777510816 | 22.22° C | 79% | 1011.3 hPa | 0 mm | - | 0 W/m² | - |
| 1777500015 | 25.56° C | 73% | 1010.8 hPa | 0 mm | - | 106 W/m² | - |
| 1777498816 | 26.11° C | 71% | 1010.7 hPa | 0 mm | - | 144 W/m² | - |
| 1777498215 | 26.11° C | 73% | 1010.5 hPa | 0 mm | - | 200 W/m² | - |
| 1777497615 | 26.11° C | 73% | 1010.9 hPa | 0 mm | - | 179 W/m² | - |
| 1777497015 | 26.11° C | 72% | 1011 hPa | 0 mm | - | 193 W/m² | - |
| 1777486238 | 23.33° C | 86% | 1013.3 hPa | 0 mm | - | 149 W/m² | - |
| 1777483217 | 22.78° C | 86% | 1013.6 hPa | 0 mm | - | 154 W/m² | - |
| 1777480817 | 22.22° C | 86% | 1013.9 hPa | 0 mm | - | 98 W/m² | - |
| 1777477817 | 22.78° C | 82% | 1013.8 hPa | 0 mm | - | 434 W/m² | - |
| 1777467617 | 17.22° C | 95% | 1013.7 hPa | 0.25 mm | - | 63 W/m² | - |
| 1777463417 | 16.67° C | 95% | 1014 hPa | 0 mm | - | 11 W/m² | - |
| 1777458636 | 16.67° C | 95% | 1014.2 hPa | 0.76 mm | - | 0 W/m² | - |
| 1777457436 | 16.67° C | 94% | 1014.8 hPa | 0 mm | - | 0 W/m² | - |
| 1777446017 | 17.22° C | 94% | 1016.5 hPa | 10.92 mm | - | 0 W/m² | - |
| 1777445416 | 17.22° C | 94% | 1016.6 hPa | 10.16 mm | - | 0 W/m² | - |
| 1777444817 | 17.22° C | 94% | 1016.7 hPa | 8.89 mm | - | 0 W/m² | - |
| 1777444216 | 17.22° C | 94% | 1017.1 hPa | 7.87 mm | - | 0 W/m² | - |
| 1777441816 | 17.22° C | 94% | 1016.7 hPa | 5.84 mm | - | 0 W/m² | - |
| 1777441216 | 17.22° C | 94% | 1016.5 hPa | 4.83 mm | - | 0 W/m² | - |
* Rain latest hour (hover to see other rain measurements)
** Current wind speed in m/s (hover to see current wind gust speed)